If you wish to contribute or participate in the discussions about articles you are invited to join SKYbrary as a registered user

 Actions

Aracatuba Airport

From SKYbrary Wiki

SBAU
Airport
ICAO: SBAU – IATA: ARU
Summary
Name Aracatuba Airport
Region South America and Caribbean
Territory Brazil BR.gif
Location Aracatuba, Sao Paulo
Serving Aracatuba
Elevation 414.833 m
1,361 ft414.833 m
Coordinates 21° 8' 39.01" S, 50° 25' 35.00" W
Runways
Designator Length Width Surface ROPS
5/23 2120 m6,955.381 ft
35 m114.829 ft
ASP /


METAR
Observation SBAU 250900Z 19008KT CAVOK 22/17 Q1014
Station ARACATUBA
Date/Time 25 March 2019 09:00:00
Wind direction 190°
Wind speed 08 kts
Lowest cloud amount clouds and visibility OK
Temperature 22°C
Dew point 17°C
Humidity 73%
QNH 1014 hPa
Weather condition n/a

Dario Guarita–Araçatuba State Airport is the airport serving Araçatuba, Brazil.

Climatology

Tropical savanna climate (Köppen climate classification Aw)

Maps

Terrain

Loading map...

Airport Layout

Loading map...


Accidents & Serious Incidents at or in vicinity of SBAU

None on SKYbrary